createdAt,value
2019-02-20T00:00:05.747Z,21.23
2019-02-20T00:01:14.985Z,20.43
2019-02-20T00:02:19.046Z,18.42
2019-02-20T00:03:23.534Z,17.85
2019-02-20T00:04:27.794Z,17.62
2019-02-20T00:05:32.339Z,18.00
2019-02-20T00:06:36.271Z,18.30
2019-02-20T00:07:40.276Z,17.65
2019-02-20T00:08:44.793Z,17.35
2019-02-20T00:09:48.646Z,16.32
2019-02-20T00:10:52.763Z,16.87
2019-02-20T00:11:56.693Z,16.93
2019-02-20T00:13:00.991Z,16.35
2019-02-20T00:14:05.016Z,15.95
2019-02-20T00:15:09.707Z,15.53
2019-02-20T00:16:13.735Z,15.43
2019-02-20T00:17:18.220Z,15.60
2019-02-20T00:18:22.838Z,15.48
2019-02-20T00:19:26.851Z,15.48
2019-02-20T00:20:30.814Z,16.05
2019-02-20T00:21:35.052Z,16.75
2019-02-20T00:22:40.472Z,15.65
2019-02-20T00:23:44.572Z,16.12
2019-02-20T00:24:48.753Z,15.98
2019-02-20T00:25:52.641Z,15.38
2019-02-20T00:26:56.897Z,15.48
2019-02-20T00:28:01.038Z,15.35
2019-02-20T00:29:05.303Z,15.00
2019-02-20T00:30:09.616Z,14.93
2019-02-20T00:31:13.892Z,14.07
2019-02-20T00:32:18.228Z,14.80
2019-02-20T00:33:22.538Z,14.40
2019-02-20T00:34:26.759Z,15.13
2019-02-20T00:35:31.054Z,13.98
2019-02-20T00:36:35.448Z,13.50
2019-02-20T00:37:39.668Z,14.68
2019-02-20T00:38:43.986Z,13.45
2019-02-20T00:39:48.283Z,14.75
2019-02-20T00:40:52.314Z,13.88
2019-02-20T00:41:56.334Z,14.38
2019-02-20T00:43:00.199Z,15.43
2019-02-20T00:44:19.495Z,18.52
2019-02-20T00:45:42.340Z,15.78
2019-02-20T00:46:54.215Z,15.55
2019-02-20T00:48:17.135Z,14.00
2019-02-20T00:49:42.714Z,14.30
2019-02-20T00:50:47.135Z,13.72
2019-02-20T00:52:10.282Z,13.28
2019-02-20T00:53:22.210Z,15.35
2019-02-20T00:54:26.475Z,13.32
2019-02-20T00:55:30.783Z,14.47
2019-02-20T00:56:34.847Z,15.53
2019-02-20T00:57:39.014Z,15.72
2019-02-20T00:58:43.016Z,15.88
2019-02-20T00:59:46.947Z,15.50
2019-02-20T01:00:50.882Z,15.55
2019-02-20T01:01:54.826Z,15.20
2019-02-20T01:02:59.099Z,14.68
2019-02-20T01:04:03.029Z,14.45
2019-02-20T01:05:07.298Z,14.50
2019-02-20T01:06:11.318Z,31.05
2019-02-20T01:07:15.614Z,23.02
2019-02-20T01:08:19.545Z,20.25
2019-02-20T01:09:23.799Z,17.45
2019-02-20T01:10:27.972Z,16.73
2019-02-20T01:11:32.409Z,14.35
2019-02-20T01:12:36.666Z,14.55
2019-02-20T01:13:40.666Z,13.55
2019-02-20T01:14:44.855Z,13.32
2019-02-20T01:15:49.205Z,13.25
2019-02-20T01:16:53.549Z,12.63
2019-02-20T01:17:57.560Z,13.78
2019-02-20T01:19:01.578Z,12.90
2019-02-20T01:20:06.397Z,12.68
2019-02-20T01:21:10.352Z,12.45
2019-02-20T01:22:14.575Z,12.50
2019-02-20T01:23:18.608Z,11.97
2019-02-20T01:24:22.866Z,12.23
2019-02-20T01:25:26.792Z,12.45
2019-02-20T01:26:30.979Z,12.65
2019-02-20T01:27:35.308Z,12.68
2019-02-20T01:28:39.251Z,12.20
2019-02-20T01:29:43.573Z,12.80
2019-02-20T01:30:47.612Z,12.80
2019-02-20T01:31:51.929Z,12.63
2019-02-20T01:32:55.966Z,12.53
2019-02-20T01:34:00.540Z,12.58
2019-02-20T01:35:04.953Z,12.88
2019-02-20T01:36:09.173Z,12.45
2019-02-20T01:37:13.466Z,12.95
2019-02-20T01:38:17.451Z,13.13
2019-02-20T01:39:21.532Z,13.83
2019-02-20T01:40:25.576Z,16.23
2019-02-20T01:41:29.550Z,18.67
2019-02-20T01:42:33.532Z,15.08
2019-02-20T01:43:37.600Z,14.38
2019-02-20T01:44:41.632Z,14.60
2019-02-20T01:45:46.087Z,14.87
2019-02-20T01:46:53.496Z,14.98
2019-02-20T01:47:57.897Z,14.45
2019-02-20T01:49:01.891Z,13.38
2019-02-20T01:50:06.158Z,14.68
2019-02-20T01:51:10.203Z,13.03
2019-02-20T01:52:14.243Z,13.60
2019-02-20T01:53:18.311Z,13.30
2019-02-20T01:54:22.356Z,14.23
2019-02-20T01:55:26.721Z,13.50
2019-02-20T01:56:30.789Z,13.28
2019-02-20T01:57:34.755Z,11.85
2019-02-20T01:58:39.143Z,12.30
2019-02-20T01:59:43.228Z,12.50
2019-02-20T02:00:47.731Z,12.18
2019-02-20T02:01:51.708Z,13.38
2019-02-20T02:02:55.758Z,13.25
2019-02-20T02:04:00.776Z,13.08
2019-02-20T02:05:05.269Z,11.80
2019-02-20T02:06:09.313Z,14.28
2019-02-20T02:07:13.352Z,13.48
2019-02-20T02:08:17.696Z,13.38
2019-02-20T02:09:21.755Z,13.05
2019-02-20T02:10:25.806Z,12.90
2019-02-20T02:11:30.218Z,13.93
2019-02-20T02:12:34.263Z,13.30
2019-02-20T02:13:38.610Z,12.28
2019-02-20T02:14:42.649Z,13.10
2019-02-20T02:15:46.610Z,13.32
2019-02-20T02:16:51.011Z,12.75
2019-02-20T02:17:55.053Z,12.25
2019-02-20T02:18:59.045Z,12.10
2019-02-20T02:20:03.158Z,13.28
2019-02-20T02:21:07.193Z,14.20
2019-02-20T02:22:11.485Z,13.72
2019-02-20T02:23:19.813Z,12.80
2019-02-20T02:24:21.299Z,13.00
2019-02-20T02:25:25.324Z,11.63
2019-02-20T02:26:29.378Z,12.40
2019-02-20T02:27:33.398Z,12.00
2019-02-20T02:28:37.803Z,12.05
2019-02-20T02:29:41.842Z,11.25
2019-02-20T02:30:46.192Z,11.35
2019-02-20T02:31:50.859Z,11.85
2019-02-20T02:32:54.943Z,11.08
2019-02-20T02:33:58.983Z,11.53
2019-02-20T02:35:03.059Z,11.85
2019-02-20T02:36:07.403Z,11.73
2019-02-20T02:37:11.676Z,11.88
2019-02-20T02:38:15.720Z,11.33
2019-02-20T02:39:19.807Z,13.08
2019-02-20T02:40:23.777Z,12.05
2019-02-20T02:41:28.342Z,12.50
2019-02-20T02:42:32.575Z,12.50
2019-02-20T02:43:36.618Z,12.43
2019-02-20T02:44:40.719Z,12.50
2019-02-20T02:45:44.927Z,13.08
2019-02-20T02:46:48.963Z,12.78
2019-02-20T02:47:52.893Z,13.32
2019-02-20T02:48:56.892Z,12.68
2019-02-20T02:50:01.420Z,13.22
2019-02-20T02:51:05.362Z,13.05
2019-02-20T02:52:09.547Z,11.83
2019-02-20T02:53:13.489Z,12.53
2019-02-20T02:54:17.720Z,11.95
2019-02-20T02:55:21.739Z,11.75
2019-02-20T02:56:25.715Z,14.20
2019-02-20T02:57:29.653Z,15.13
2019-02-20T02:58:33.828Z,18.35
2019-02-20T02:59:37.790Z,16.57
2019-02-20T03:00:41.762Z,20.57
2019-02-20T03:01:45.758Z,18.65
2019-02-20T03:02:49.700Z,20.77
2019-02-20T03:03:53.881Z,18.60
2019-02-20T03:04:57.925Z,19.37
2019-02-20T03:06:02.146Z,26.73
2019-02-20T03:07:06.157Z,17.85
2019-02-20T03:08:10.173Z,18.48
2019-02-20T03:09:14.545Z,22.00
2019-02-20T03:10:18.575Z,19.62
2019-02-20T03:11:22.856Z,17.25
2019-02-20T03:12:27.241Z,20.10
2019-02-20T03:13:31.463Z,17.40
2019-02-20T03:14:36.097Z,18.15
2019-02-20T03:15:40.128Z,20.97
2019-02-20T03:16:44.559Z,16.15
2019-02-20T03:17:48.916Z,18.98
2019-02-20T03:18:53.223Z,18.05
2019-02-20T03:19:57.839Z,16.20
2019-02-20T03:21:02.233Z,17.73
2019-02-20T03:22:06.251Z,16.10
2019-02-20T03:23:10.455Z,19.45
2019-02-20T03:24:14.632Z,15.72
2019-02-20T03:25:18.555Z,17.30
2019-02-20T03:26:22.503Z,18.42
2019-02-20T03:27:26.751Z,17.37
2019-02-20T03:28:31.250Z,16.90
2019-02-20T03:29:35.179Z,18.62
2019-02-20T03:30:39.657Z,16.35
2019-02-20T03:31:43.934Z,14.38
2019-02-20T03:32:48.107Z,15.38
2019-02-20T03:33:52.268Z,17.23
2019-02-20T03:34:56.513Z,14.35
2019-02-20T03:36:00.459Z,15.53
2019-02-20T03:37:04.704Z,14.50
2019-02-20T03:38:08.639Z,17.00
2019-02-20T03:39:12.664Z,16.57
2019-02-20T03:40:16.886Z,15.70
2019-02-20T03:41:20.917Z,15.00
2019-02-20T03:42:24.913Z,20.08
2019-02-20T03:43:29.175Z,16.32
2019-02-20T03:44:33.433Z,18.05
2019-02-20T03:45:37.352Z,16.97
2019-02-20T03:46:41.615Z,18.65
2019-02-20T03:47:45.714Z,18.65
2019-02-20T03:48:49.653Z,18.52
2019-02-20T03:49:53.917Z,22.22
2019-02-20T03:50:57.926Z,20.27
2019-02-20T03:52:02.124Z,19.67
2019-02-20T03:53:06.227Z,16.27
2019-02-20T03:54:11.001Z,19.92
2019-02-20T03:55:15.106Z,19.20
2019-02-20T03:56:19.275Z,17.35
2019-02-20T03:57:23.228Z,21.97
2019-02-20T03:58:27.240Z,18.87
2019-02-20T03:59:31.503Z,24.57
2019-02-20T04:00:35.545Z,18.60
2019-02-20T04:01:39.813Z,20.30
2019-02-20T04:02:43.753Z,21.95
2019-02-20T04:03:48.168Z,19.05
2019-02-20T04:04:52.116Z,19.55
2019-02-20T04:05:56.867Z,18.32
2019-02-20T04:07:00.873Z,22.37
2019-02-20T04:08:04.970Z,19.82
2019-02-20T04:09:09.258Z,19.05
2019-02-20T04:10:13.280Z,21.15
2019-02-20T04:11:17.222Z,21.37
2019-02-20T04:12:21.247Z,19.40
2019-02-20T04:13:25.184Z,19.95
2019-02-20T04:14:29.667Z,20.68
2019-02-20T04:15:33.974Z,18.75
2019-02-20T04:16:38.182Z,18.23
2019-02-20T04:17:42.693Z,19.80
2019-02-20T04:18:47.212Z,23.40
2019-02-20T04:19:51.229Z,20.85
2019-02-20T04:20:55.272Z,19.82
2019-02-20T04:21:59.526Z,22.30
2019-02-20T04:23:03.889Z,18.80
2019-02-20T04:24:07.904Z,20.05
2019-02-20T04:25:11.844Z,20.00
2019-02-20T04:26:15.852Z,20.82
2019-02-20T04:27:19.735Z,20.23
2019-02-20T04:28:23.936Z,19.17
2019-02-20T04:29:27.924Z,17.07
2019-02-20T04:30:32.242Z,18.48
2019-02-20T04:31:36.549Z,20.95
2019-02-20T04:32:40.503Z,21.05
2019-02-20T04:33:44.775Z,18.75
2019-02-20T04:34:48.966Z,19.25
2019-02-20T04:35:52.891Z,19.02
2019-02-20T04:36:57.389Z,19.82
2019-02-20T04:38:01.673Z,17.02
2019-02-20T04:39:06.608Z,21.02
2019-02-20T04:40:10.639Z,20.37
2019-02-20T04:41:14.582Z,19.90
2019-02-20T04:42:18.659Z,21.05
2019-02-20T04:43:22.859Z,21.17
2019-02-20T04:44:27.115Z,24.07
2019-02-20T04:45:31.304Z,23.20
2019-02-20T04:46:35.403Z,20.72
2019-02-20T04:47:39.849Z,17.55
2019-02-20T04:48:43.775Z,16.70
2019-02-20T04:49:47.975Z,16.65
2019-02-20T04:50:51.986Z,16.42
2019-02-20T04:51:56.233Z,26.05
2019-02-20T04:53:00.176Z,17.52
2019-02-20T04:54:12.927Z,21.37
2019-02-20T04:55:10.175Z,16.85
2019-02-20T04:56:14.326Z,16.05
2019-02-20T04:57:18.923Z,17.95
2019-02-20T04:58:23.523Z,17.35
2019-02-20T04:59:27.804Z,16.97
2019-02-20T05:00:32.159Z,21.87
2019-02-20T05:01:36.461Z,18.40
2019-02-20T05:02:40.487Z,18.17
2019-02-20T05:03:44.681Z,22.37
2019-02-20T05:04:48.692Z,18.75
2019-02-20T05:05:53.082Z,19.80
2019-02-20T05:06:57.068Z,18.82
2019-02-20T05:08:01.086Z,20.52
2019-02-20T05:09:06.340Z,22.37
2019-02-20T05:10:11.338Z,17.65
2019-02-20T05:11:15.280Z,19.70
2019-02-20T05:12:19.220Z,19.95
2019-02-20T05:13:23.171Z,19.62
2019-02-20T05:14:27.416Z,25.27
2019-02-20T05:15:31.519Z,23.55
2019-02-20T05:16:35.773Z,16.00
2019-02-20T05:17:39.872Z,15.63
2019-02-20T05:18:44.118Z,16.80
2019-02-20T05:19:48.433Z,17.42
2019-02-20T05:20:52.684Z,16.50
2019-02-20T05:21:56.542Z,17.00
2019-02-20T05:23:00.564Z,17.23
2019-02-20T05:24:04.728Z,17.57
2019-02-20T05:25:08.810Z,18.42
2019-02-20T05:26:12.826Z,20.60
2019-02-20T05:27:17.093Z,19.80
2019-02-20T05:28:21.400Z,18.95
2019-02-20T05:29:26.014Z,20.88
2019-02-20T05:30:29.965Z,22.00
2019-02-20T05:31:34.284Z,23.27
2019-02-20T05:32:38.239Z,23.92
2019-02-20T05:33:42.258Z,23.02
2019-02-20T05:34:46.125Z,19.27
2019-02-20T05:35:50.063Z,19.80
2019-02-20T05:36:54.013Z,18.75
2019-02-20T05:37:58.325Z,17.75
2019-02-20T05:39:02.440Z,19.23
2019-02-20T05:40:06.844Z,24.15
2019-02-20T05:41:10.861Z,19.57
2019-02-20T05:42:15.457Z,20.20
2019-02-20T05:43:19.727Z,19.37
2019-02-20T05:44:23.680Z,21.25
2019-02-20T05:45:27.623Z,22.30
2019-02-20T05:46:31.563Z,22.85
2019-02-20T05:47:35.997Z,15.23
2019-02-20T05:48:40.279Z,19.07
2019-02-20T05:49:44.239Z,17.82
2019-02-20T05:50:49.000Z,17.07
2019-02-20T05:51:52.979Z,21.35
2019-02-20T05:52:57.369Z,18.10
2019-02-20T05:54:01.301Z,18.45
2019-02-20T05:55:05.660Z,19.15
2019-02-20T05:56:10.088Z,17.45
2019-02-20T05:57:14.283Z,19.12
2019-02-20T05:58:18.148Z,17.82
2019-02-20T05:59:22.331Z,18.37
2019-02-20T06:00:26.275Z,19.80
2019-02-20T06:01:30.749Z,18.27
2019-02-20T06:02:35.139Z,18.82
2019-02-20T06:03:39.095Z,20.43
2019-02-20T06:04:43.352Z,20.40
2019-02-20T06:05:47.386Z,19.67
2019-02-20T06:06:53.171Z,16.35
2019-02-20T06:07:57.061Z,19.82
2019-02-20T06:09:01.107Z,22.85
2019-02-20T06:10:08.933Z,20.52
2019-02-20T06:11:15.177Z,20.35
2019-02-20T06:12:19.567Z,18.42
2019-02-20T06:13:23.837Z,22.50
2019-02-20T06:14:27.842Z,18.65
2019-02-20T06:15:31.915Z,19.32
2019-02-20T06:16:35.987Z,22.65
2019-02-20T06:17:40.039Z,21.95
2019-02-20T06:18:44.334Z,15.25
2019-02-20T06:19:48.854Z,19.17
2019-02-20T06:20:53.034Z,20.68
2019-02-20T06:21:57.034Z,22.22
2019-02-20T06:23:00.962Z,23.85
2019-02-20T06:24:05.234Z,19.67
2019-02-20T06:25:09.269Z,18.42
2019-02-20T06:26:13.504Z,16.45
2019-02-20T06:27:17.845Z,16.20
2019-02-20T06:28:22.051Z,16.10
2019-02-20T06:29:26.299Z,16.32
2019-02-20T06:30:30.314Z,16.60
2019-02-20T06:31:34.823Z,15.03
2019-02-20T06:32:38.826Z,15.43
2019-02-20T06:33:43.096Z,16.10
2019-02-20T06:34:47.096Z,18.15
2019-02-20T06:35:51.590Z,17.20
2019-02-20T06:36:55.886Z,17.27
2019-02-20T06:38:00.071Z,15.43
2019-02-20T06:39:05.170Z,18.52
2019-02-20T06:40:09.645Z,17.35
2019-02-20T06:41:14.245Z,17.50
2019-02-20T06:42:18.178Z,15.50
2019-02-20T06:43:22.581Z,17.60
2019-02-20T06:44:27.301Z,16.87
2019-02-20T06:45:31.310Z,18.92
2019-02-20T06:46:35.511Z,17.80
2019-02-20T06:47:39.707Z,15.72
2019-02-20T06:48:43.991Z,16.15
2019-02-20T06:49:48.010Z,17.95
2019-02-20T06:50:52.031Z,16.52
2019-02-20T06:51:56.510Z,16.87
2019-02-20T06:53:01.020Z,18.45
2019-02-20T06:54:05.040Z,17.15
2019-02-20T06:55:09.661Z,21.70
2019-02-20T06:56:13.967Z,23.77
2019-02-20T06:57:18.256Z,22.85
2019-02-20T06:58:22.479Z,29.12
2019-02-20T06:59:26.622Z,28.92
2019-02-20T07:00:30.644Z,29.60
2019-02-20T07:01:34.943Z,24.87
2019-02-20T07:02:39.075Z,23.02
2019-02-20T07:03:43.288Z,20.88
2019-02-20T07:05:23.052Z,19.80
2019-02-20T07:06:37.809Z,17.90
2019-02-20T07:08:17.635Z,21.12
2019-02-20T07:10:07.608Z,19.05
2019-02-20T07:11:38.793Z,18.02
2019-02-20T07:13:09.271Z,17.95
2019-02-20T07:14:32.406Z,20.32
2019-02-20T07:16:45.524Z,21.50
2019-02-20T07:18:29.010Z,19.85
2019-02-20T07:19:47.961Z,18.67
2019-02-20T07:21:15.623Z,14.73
2019-02-20T07:23:12.915Z,19.02
2019-02-20T07:24:47.736Z,15.30
2019-02-20T07:26:26.967Z,20.88
2019-02-20T07:28:14.758Z,19.32
2019-02-20T07:29:43.314Z,18.32
2019-02-20T07:30:47.177Z,16.80
2019-02-20T07:31:51.387Z,17.42
2019-02-20T07:32:55.891Z,18.20
2019-02-20T07:34:00.183Z,17.65
2019-02-20T07:35:04.405Z,16.67
2019-02-20T07:36:08.412Z,17.02
2019-02-20T07:37:12.596Z,16.05
2019-02-20T07:38:16.802Z,17.30
2019-02-20T07:39:20.983Z,17.40
2019-02-20T07:40:24.996Z,17.73
2019-02-20T07:41:29.169Z,18.98
2019-02-20T07:42:33.295Z,17.30
2019-02-20T07:43:37.483Z,18.27
2019-02-20T07:44:41.684Z,17.60
2019-02-20T07:45:45.685Z,16.12
2019-02-20T07:46:49.796Z,18.52
2019-02-20T07:47:54.352Z,17.37
2019-02-20T07:48:58.367Z,17.37
2019-02-20T07:50:02.886Z,16.30
2019-02-20T07:51:06.991Z,16.93
2019-02-20T07:52:11.392Z,16.77
2019-02-20T07:53:15.589Z,17.05
2019-02-20T07:54:19.790Z,16.23
2019-02-20T07:55:24.057Z,15.00
2019-02-20T07:56:28.316Z,15.20
2019-02-20T07:57:32.266Z,15.10
2019-02-20T07:58:36.515Z,15.23
2019-02-20T07:59:40.579Z,14.87
2019-02-20T08:00:44.518Z,14.53
2019-02-20T08:01:48.710Z,15.15
2019-02-20T08:02:52.984Z,16.00
2019-02-20T08:03:56.928Z,16.10
2019-02-20T08:05:01.243Z,16.45
2019-02-20T08:06:05.583Z,14.07
2019-02-20T08:07:09.890Z,14.78
2019-02-20T08:08:14.157Z,14.35
2019-02-20T08:09:18.477Z,13.58
2019-02-20T08:10:22.483Z,12.60
2019-02-20T08:11:26.797Z,11.53
2019-02-20T08:12:31.059Z,12.18
2019-02-20T08:13:39.241Z,11.83
2019-02-20T08:14:40.911Z,12.00
2019-02-20T08:15:45.423Z,14.47
2019-02-20T08:16:52.240Z,11.73
2019-02-20T08:17:55.448Z,10.45
2019-02-20T08:18:59.626Z,10.65
2019-02-20T08:20:03.731Z,11.57
2019-02-20T08:21:07.674Z,10.55
2019-02-20T08:22:11.608Z,22.85
2019-02-20T08:23:16.132Z,17.73
2019-02-20T08:24:20.299Z,22.37
2019-02-20T08:25:24.562Z,18.82
2019-02-20T08:26:28.493Z,21.27
2019-02-20T08:27:32.749Z,15.43
2019-02-20T08:28:36.695Z,14.68
2019-02-20T08:29:40.701Z,14.43
2019-02-20T08:30:44.872Z,13.65
2019-02-20T08:31:49.141Z,13.30
2019-02-20T08:32:53.085Z,12.90
2019-02-20T08:33:57.297Z,12.98
2019-02-20T08:35:01.409Z,13.58
2019-02-20T08:36:05.709Z,12.23
2019-02-20T08:37:09.986Z,11.90
2019-02-20T08:38:13.943Z,12.03
2019-02-20T08:39:18.085Z,11.38
2019-02-20T08:40:22.127Z,10.93
2019-02-20T08:41:26.059Z,12.15
2019-02-20T08:42:30.167Z,13.43
2019-02-20T08:43:34.037Z,12.37
2019-02-20T08:44:38.026Z,12.40
2019-02-20T08:45:41.960Z,13.10
2019-02-20T08:46:45.961Z,13.70
2019-02-20T08:47:50.181Z,12.05
2019-02-20T08:48:54.370Z,13.03
2019-02-20T08:49:58.635Z,13.25
2019-02-20T08:51:03.095Z,13.13
2019-02-20T08:52:07.918Z,13.43
2019-02-20T08:53:12.308Z,13.85
2019-02-20T08:54:16.486Z,12.90
2019-02-20T08:55:21.566Z,13.18
2019-02-20T08:56:26.054Z,13.40
2019-02-20T08:57:30.295Z,13.40
2019-02-20T08:58:34.309Z,13.45
2019-02-20T08:59:38.335Z,13.93
2019-02-20T09:00:42.592Z,12.60
2019-02-20T09:01:46.514Z,12.98
2019-02-20T09:02:50.475Z,12.40
2019-02-20T09:03:54.423Z,11.88
2019-02-20T09:04:58.606Z,13.05
2019-02-20T09:06:02.595Z,12.53
2019-02-20T09:07:07.048Z,12.10
2019-02-20T09:08:11.057Z,12.65
2019-02-20T09:09:15.051Z,12.78
2019-02-20T09:10:19.161Z,12.13
2019-02-20T09:11:23.532Z,12.53
2019-02-20T09:12:27.471Z,13.05
2019-02-20T09:13:31.385Z,13.20
2019-02-20T09:14:35.250Z,11.95
2019-02-20T09:15:39.116Z,11.75
2019-02-20T09:16:43.427Z,15.05
2019-02-20T09:17:47.287Z,18.05
2019-02-20T09:18:51.490Z,16.25
2019-02-20T09:19:55.500Z,14.13
2019-02-20T09:20:59.328Z,24.23
2019-02-20T09:22:03.316Z,34.40
2019-02-20T09:23:07.322Z,30.02
2019-02-20T09:24:11.736Z,23.98
2019-02-20T09:25:19.837Z,23.73
2019-02-20T09:26:22.299Z,24.20
2019-02-20T09:27:26.438Z,18.50
2019-02-20T09:28:31.019Z,18.23
2019-02-20T09:29:34.963Z,28.60
2019-02-20T09:30:38.898Z,24.15
2019-02-20T09:31:43.364Z,17.12
2019-02-20T09:32:47.554Z,24.25
2019-02-20T09:33:51.742Z,23.95
2019-02-20T09:34:55.943Z,23.02
2019-02-20T09:36:00.251Z,18.05
2019-02-20T09:37:04.460Z,15.83
2019-02-20T09:38:10.487Z,13.30
2019-02-20T09:39:46.071Z,14.93
2019-02-20T09:40:50.253Z,12.05
2019-02-20T09:41:54.611Z,11.95
2019-02-20T09:42:58.539Z,13.65
2019-02-20T09:44:02.544Z,12.30
2019-02-20T09:45:06.753Z,12.03
2019-02-20T09:46:10.653Z,13.00
2019-02-20T09:47:14.900Z,11.10
2019-02-20T09:48:23.911Z,11.30
2019-02-20T09:49:28.230Z,13.03
2019-02-20T09:50:32.464Z,12.18
2019-02-20T09:51:36.632Z,11.88
2019-02-20T09:52:40.948Z,12.40
2019-02-20T09:53:45.240Z,12.45
2019-02-20T09:54:49.508Z,13.38
2019-02-20T09:55:53.510Z,12.70
2019-02-20T09:56:57.698Z,13.40
2019-02-20T09:58:02.203Z,12.58
2019-02-20T09:59:06.206Z,12.90
2019-02-20T10:00:12.780Z,11.83
2019-02-20T10:01:17.056Z,12.82
2019-02-20T10:02:21.060Z,12.95
2019-02-20T10:03:25.232Z,13.72
2019-02-20T10:04:29.418Z,14.03
2019-02-20T10:05:33.438Z,13.30
2019-02-20T10:06:37.714Z,13.80
2019-02-20T10:07:41.741Z,12.37
2019-02-20T10:08:45.889Z,12.28
2019-02-20T10:09:49.822Z,12.85
2019-02-20T10:10:53.764Z,43.08
2019-02-20T10:11:57.942Z,18.48
2019-02-20T10:13:01.798Z,14.90
2019-02-20T10:14:06.046Z,18.30
2019-02-20T10:15:11.207Z,17.23
2019-02-20T10:16:15.370Z,13.45
2019-02-20T10:17:20.107Z,13.93
2019-02-20T10:18:24.037Z,14.18
2019-02-20T10:19:28.043Z,12.63
2019-02-20T10:20:32.497Z,20.43
2019-02-20T10:21:36.494Z,17.05
2019-02-20T10:22:40.495Z,20.57
2019-02-20T10:23:45.302Z,14.25
2019-02-20T10:24:49.159Z,10.58
2019-02-20T10:26:00.547Z,9.80
2019-02-20T10:27:00.873Z,10.95
2019-02-20T10:28:05.015Z,11.00
2019-02-20T10:29:08.966Z,10.55
2019-02-20T10:30:15.102Z,11.12
2019-02-20T10:31:19.125Z,11.05
2019-02-20T10:32:23.118Z,11.33
2019-02-20T10:33:26.989Z,11.40
2019-02-20T10:34:31.261Z,11.30
2019-02-20T10:35:35.114Z,16.40
2019-02-20T10:36:39.705Z,14.78
2019-02-20T10:37:43.746Z,11.95
2019-02-20T10:38:47.621Z,11.57
2019-02-20T10:39:51.906Z,11.15
2019-02-20T10:40:55.947Z,11.60
2019-02-20T10:41:59.964Z,11.53
2019-02-20T10:43:03.977Z,11.20
2019-02-20T10:44:08.554Z,11.33
2019-02-20T10:45:12.589Z,12.23
2019-02-20T10:46:17.246Z,11.85
2019-02-20T10:47:21.119Z,12.65
2019-02-20T10:48:25.452Z,11.20
2019-02-20T10:49:29.387Z,13.90
2019-02-20T10:50:33.866Z,12.18
2019-02-20T10:51:37.879Z,11.68
2019-02-20T10:52:41.808Z,11.53
2019-02-20T10:53:45.735Z,12.13
2019-02-20T10:54:57.393Z,12.10
2019-02-20T10:55:55.314Z,11.65
2019-02-20T10:56:59.202Z,12.35
2019-02-20T10:58:03.133Z,12.75
2019-02-20T10:59:07.645Z,12.47
2019-02-20T11:00:26.699Z,12.23
2019-02-20T11:01:30.714Z,11.40
2019-02-20T11:02:35.091Z,11.35
2019-02-20T11:03:39.189Z,17.20
2019-02-20T11:04:43.201Z,15.68
2019-02-20T11:05:47.458Z,12.93
2019-02-20T11:06:53.331Z,12.13
2019-02-20T11:07:57.403Z,12.03
2019-02-20T11:09:01.690Z,12.25
2019-02-20T11:10:07.520Z,11.53
2019-02-20T11:11:11.517Z,13.30
2019-02-20T11:12:16.005Z,12.07
2019-02-20T11:13:19.940Z,11.43
2019-02-20T11:14:23.822Z,10.58
2019-02-20T11:15:27.751Z,10.23
2019-02-20T11:16:33.091Z,11.10
2019-02-20T11:17:37.566Z,10.53
2019-02-20T11:18:41.419Z,10.55
2019-02-20T11:19:45.425Z,10.78
2019-02-20T11:20:49.432Z,14.85
2019-02-20T11:21:53.607Z,14.85
2019-02-20T11:22:57.556Z,18.35
2019-02-20T11:24:01.820Z,11.28
2019-02-20T11:25:06.767Z,10.35
2019-02-20T11:26:17.875Z,10.35
2019-02-20T11:27:16.445Z,10.55
2019-02-20T11:28:26.780Z,9.70
2019-02-20T11:29:26.311Z,9.38
2019-02-20T11:30:30.958Z,10.58
2019-02-20T11:31:35.288Z,10.58
2019-02-20T11:32:39.595Z,11.43
2019-02-20T11:33:43.614Z,9.45
2019-02-20T11:34:48.022Z,9.53
2019-02-20T11:35:52.325Z,9.23
2019-02-20T11:36:56.519Z,9.00
2019-02-20T11:38:00.400Z,9.48
2019-02-20T11:39:06.160Z,9.03
2019-02-20T11:40:10.485Z,9.23
2019-02-20T11:41:14.526Z,8.05
2019-02-20T11:42:18.529Z,8.05
2019-02-20T11:43:22.479Z,12.28
2019-02-20T11:44:26.838Z,8.98
2019-02-20T11:45:31.172Z,9.53
2019-02-20T11:46:35.214Z,9.00
2019-02-20T11:47:39.426Z,8.90
2019-02-20T11:48:44.360Z,8.15
2019-02-20T11:49:48.522Z,7.78
2019-02-20T11:50:52.568Z,7.30
2019-02-20T11:51:56.728Z,7.30
2019-02-20T11:53:01.188Z,7.28
2019-02-20T11:54:05.250Z,7.10
2019-02-20T11:55:09.524Z,8.70
2019-02-20T11:56:13.966Z,8.03
2019-02-20T11:57:18.168Z,6.45
2019-02-20T11:58:22.293Z,6.33
2019-02-20T11:59:26.714Z,6.78
2019-02-20T12:00:31.046Z,6.62
2019-02-20T12:01:35.472Z,7.37
2019-02-20T12:02:39.606Z,6.35
2019-02-20T12:03:43.830Z,6.28
2019-02-20T12:04:47.805Z,6.22
2019-02-20T12:05:51.838Z,6.42
2019-02-20T12:06:56.146Z,6.60
2019-02-20T12:08:00.435Z,6.12
2019-02-20T12:09:05.702Z,6.40
2019-02-20T12:10:09.951Z,6.05
2019-02-20T12:11:14.230Z,5.80
2019-02-20T12:12:18.583Z,6.10
2019-02-20T12:13:22.610Z,6.45
2019-02-20T12:14:26.641Z,6.15
2019-02-20T12:15:31.069Z,5.55
2019-02-20T12:16:35.614Z,5.60
2019-02-20T12:17:41.051Z,5.95
2019-02-20T12:18:48.056Z,4.92
2019-02-20T12:19:52.058Z,5.30
2019-02-20T12:20:56.087Z,5.15
2019-02-20T12:22:00.393Z,5.15
2019-02-20T12:23:04.399Z,4.90
2019-02-20T12:24:08.735Z,5.25
2019-02-20T12:25:16.525Z,4.97
2019-02-20T12:26:20.671Z,5.05
2019-02-20T12:27:24.942Z,4.90
2019-02-20T12:28:29.166Z,5.42
2019-02-20T12:29:33.375Z,5.25
2019-02-20T12:30:38.141Z,5.22
2019-02-20T12:31:42.205Z,4.83
2019-02-20T12:32:46.553Z,5.00
2019-02-20T12:33:52.246Z,4.90
2019-02-20T12:34:56.347Z,3.35
2019-02-20T12:36:00.463Z,3.75
2019-02-20T12:37:04.789Z,3.60
2019-02-20T12:38:09.146Z,3.20
2019-02-20T12:39:13.098Z,3.02
2019-02-20T12:40:17.112Z,3.10
2019-02-20T12:41:21.458Z,3.33
2019-02-20T12:42:25.869Z,3.27
2019-02-20T12:43:29.875Z,3.42
2019-02-20T12:44:33.915Z,3.87
2019-02-20T12:45:37.903Z,3.47
2019-02-20T12:46:42.283Z,3.15
2019-02-20T12:47:46.669Z,3.62
2019-02-20T12:48:51.100Z,3.52
2019-02-20T12:49:55.103Z,3.50
2019-02-20T12:50:59.421Z,3.10
2019-02-20T12:52:03.926Z,3.60
2019-02-20T12:53:08.208Z,2.98
2019-02-20T12:54:12.222Z,3.22
2019-02-20T12:55:16.540Z,3.77
2019-02-20T12:56:20.495Z,3.02
2019-02-20T12:57:24.925Z,3.58
2019-02-20T12:58:29.116Z,3.40
2019-02-20T12:59:33.166Z,3.12
2019-02-20T13:00:37.166Z,3.50
2019-02-20T13:01:41.179Z,4.83
2019-02-20T13:02:45.212Z,3.75
2019-02-20T13:03:49.283Z,3.27
2019-02-20T13:04:53.438Z,2.95
2019-02-20T13:05:57.533Z,3.42
2019-02-20T13:07:01.496Z,3.50
2019-02-20T13:08:05.530Z,3.50
2019-02-20T13:09:12.707Z,3.37
2019-02-20T13:10:17.137Z,3.72
2019-02-20T13:11:21.479Z,3.27
2019-02-20T13:12:25.516Z,3.67
2019-02-20T13:13:29.576Z,3.22
2019-02-20T13:14:33.673Z,3.60
2019-02-20T13:15:38.031Z,4.22
2019-02-20T13:16:42.162Z,3.83
2019-02-20T13:17:46.221Z,3.80
2019-02-20T13:18:50.185Z,3.83
2019-02-20T13:19:56.737Z,3.60
2019-02-20T13:21:00.631Z,4.78
2019-02-20T13:22:04.664Z,3.67
2019-02-20T13:23:08.831Z,4.28
2019-02-20T13:24:12.907Z,4.70
2019-02-20T13:25:27.304Z,4.20
2019-02-20T13:26:31.341Z,3.83
2019-02-20T13:27:35.363Z,3.67
2019-02-20T13:28:39.722Z,3.80
2019-02-20T13:29:44.279Z,4.08
2019-02-20T13:30:48.430Z,4.00
2019-02-20T13:31:52.750Z,3.50
2019-02-20T13:32:57.077Z,4.30
2019-02-20T13:34:01.143Z,4.08
2019-02-20T13:35:05.857Z,4.25
2019-02-20T13:36:10.070Z,4.05
2019-02-20T13:37:14.129Z,4.05
2019-02-20T13:38:18.142Z,4.00
2019-02-20T13:39:22.437Z,4.22
2019-02-20T13:40:26.408Z,5.30
2019-02-20T13:41:30.998Z,4.75
2019-02-20T13:42:35.070Z,3.92
2019-02-20T13:43:39.638Z,3.95
2019-02-20T13:44:43.676Z,3.80
2019-02-20T13:45:48.253Z,3.80
2019-02-20T13:46:53.837Z,4.00
2019-02-20T13:47:58.028Z,3.33
2019-02-20T13:49:02.153Z,3.25
2019-02-20T13:50:07.166Z,3.05
2019-02-20T13:51:11.117Z,3.02
2019-02-20T13:52:15.039Z,2.83
2019-02-20T13:53:19.220Z,10.70
2019-02-20T13:54:23.237Z,4.75
2019-02-20T13:55:34.289Z,2.62
2019-02-20T13:56:32.897Z,2.33
2019-02-20T13:57:36.845Z,2.60
2019-02-20T13:58:41.193Z,2.47
2019-02-20T13:59:45.388Z,2.50
2019-02-20T14:00:49.403Z,2.35
2019-02-20T14:01:53.401Z,3.10
2019-02-20T14:02:57.406Z,2.65
2019-02-20T14:04:01.852Z,2.85